Time;durP1;ratioP1;P1;durP2;ratioP2;P2;SDS_P1;SDS_P2;PMS_P1;PMS_P2;Temp;Humidity;BMP_temperature;BMP_pressure;BME280_temperature;BME280_humidity;BME280_pressure;Samples;Min_cycle;Max_cycle;Signal;HPM_P1;HPM_P2
2022/05/23 00:01:07;;;;;;;2.60;2.30;;;;;;;10.71;64.58;98432.05;221840;1270;22573;-68
2022/05/23 00:06:20;;;;;;;5.20;3.00;;;;;;;10.58;64.87;98432.34;219568;1270;22619;-68
2022/05/23 00:11:22;;;;;;;3.20;2.80;;;;;;;10.44;65.18;98432.14;219622;1270;277643;-68
2022/05/23 00:16:39;;;;;;;3.90;2.80;;;;;;;10.29;65.62;98431.60;219811;1270;23795;-68
2022/05/23 00:21:47;;;;;;;4.10;2.90;;;;;;;10.17;65.93;98429.88;219891;1271;22666;-68
2022/05/23 00:27:11;;;;;;;3.50;3.20;;;;;;;10.06;66.35;98432.00;220049;1270;22553;-68
2022/05/23 00:38:34;;;;;;;4.10;3.10;;;;;;;9.80;66.86;98432.61;219635;1270;22532;-69
2022/05/23 00:44:16;;;;;;;;;;;;;;;;;;;;;
2022/05/23 00:49:58;;;;;;;4.70;3.10;;;;;;;9.58;67.49;98433.59;220476;1270;22573;-68
2022/05/23 00:56:22;;;;;;;4.70;3.40;;;;;;;9.50;68.07;98431.45;219614;1270;22553;-67
2022/05/23 01:02:41;;;;;;;;;;;;;;;;;;;;;
2022/05/23 01:08:39;;;;;;;3.30;2.90;;;;;;;9.35;68.59;98434.98;219540;1270;22566;-68
2022/05/23 01:14:40;;;;;;;3.50;3.20;;;;;;;9.26;68.65;98437.40;219829;1270;22907;-69
2022/05/23 01:20:41;;;;;;;4.10;3.70;;;;;;;9.15;69.00;98440.52;221249;1271;25366;-69
2022/05/23 01:26:06;;;;;;;4.10;3.40;;;;;;;9.04;69.18;98445.03;219717;1270;25895;-69
2022/05/23 01:31:57;;;;;;;5.20;3.60;;;;;;;8.96;69.43;98440.39;219545;1271;22532;-69
2022/05/23 01:37:29;;;;;;;4.70;3.70;;;;;;;8.85;69.91;98439.53;219594;1270;22604;-68
2022/05/23 01:42:49;;;;;;;5.10;3.50;;;;;;;8.76;70.16;98440.34;221683;1269;25255;-68
2022/05/23 01:47:53;;;;;;;4.40;3.80;;;;;;;8.65;70.33;98442.81;220325;1271;22554;-66
2022/05/23 01:53:09;;;;;;;4.30;3.90;;;;;;;8.52;70.12;98437.55;219720;1270;22523;-68
2022/05/23 02:03:58;;;;;;;4.90;4.00;;;;;;;8.30;70.73;98421.45;220465;1270;22780;-69
2022/05/23 02:09:26;;;;;;;6.20;3.80;;;;;;;8.26;71.12;98418.72;219699;1270;22608;-68
2022/05/23 02:14:57;;;;;;;4.90;4.30;;;;;;;8.22;71.17;98412.17;219635;1270;22574;-68
2022/05/23 02:20:23;;;;;;;4.50;4.10;;;;;;;8.17;71.23;98415.96;219223;1270;24299;-68
2022/05/23 02:25:29;;;;;;;4.80;4.30;;;;;;;8.11;71.35;98411.02;219788;1270;22697;-68
2022/05/23 02:30:33;;;;;;;5.30;4.50;;;;;;;8.02;71.28;98413.43;219991;1270;22576;-68
2022/05/23 02:35:39;;;;;;;5.30;4.20;;;;;;;7.92;71.55;98418.95;219723;1270;25515;-68
2022/05/23 02:41:05;;;;;;;5.20;4.40;;;;;;;7.81;71.23;98421.33;219827;1270;24899;-68
2022/05/23 02:46:12;;;;;;;4.80;4.30;;;;;;;7.71;71.98;98416.60;219819;1271;24306;-68
2022/05/23 02:51:29;;;;;;;4.60;4.20;;;;;;;7.63;72.17;98410.80;220385;1270;25454;-68
2022/05/23 02:56:34;;;;;;;5.20;4.70;;;;;;;7.58;72.09;98408.81;220309;1271;22695;-68
2022/05/23 03:07:10;;;;;;;8.80;6.50;;;;;;;7.53;72.51;98410.97;219528;1270;22841;-68
2022/05/23 03:12:13;;;;;;;10.30;6.40;;;;;;;7.55;72.89;98414.58;220255;1271;22553;-68
2022/05/23 03:17:16;;;;;;;6.90;6.00;;;;;;;7.60;73.17;98423.08;219873;1271;24781;-69
2022/05/23 03:27:42;;;;;;;9.60;7.20;;;;;;;7.92;73.88;98426.00;219544;1270;23882;-68
2022/05/23 03:32:50;;;;;;;6.60;5.40;;;;;;;8.30;73.77;98428.02;219577;1270;22577;-69
2022/05/23 03:37:55;;;;;;;7.40;5.30;;;;;;;8.68;73.00;98431.73;219785;1270;23164;-69
2022/05/23 03:43:02;;;;;;;7.00;5.30;;;;;;;9.21;72.80;98437.95;220067;1271;24331;-69
2022/05/23 03:48:06;;;;;;;7.40;5.30;;;;;;;9.79;72.12;98439.32;220677;1270;22535;-69
2022/05/23 03:53:09;;;;;;;7.40;5.30;;;;;;;10.46;71.82;98450.48;220438;1269;22623;-68
2022/05/23 03:58:33;;;;;;;6.20;5.10;;;;;;;11.06;70.93;98450.13;219530;1270;22537;-69
2022/05/23 04:04:15;;;;;;;6.50;5.40;;;;;;;11.30;69.65;98463.74;220348;1270;22641;-68
2022/05/23 04:09:29;;;;;;;7.90;6.20;;;;;;;11.32;69.17;98470.08;219516;1270;23969;-68
2022/05/23 04:14:34;;;;;;;10.70;6.10;;;;;;;11.27;68.81;98475.80;220061;1270;24262;-68
2022/05/23 04:19:37;;;;;;;7.00;6.30;;;;;;;11.18;68.57;98467.86;219535;1270;22550;-68
2022/05/23 04:25:06;;;;;;;6.90;6.20;;;;;;;10.97;68.41;98465.85;219855;1271;25091;-68
2022/05/23 04:30:10;;;;;;;7.50;6.60;;;;;;;10.81;68.68;98464.08;219840;1270;22528;-68
2022/05/23 04:35:21;;;;;;;7.40;5.80;;;;;;;10.70;68.85;98466.15;219671;1270;22554;-68
2022/05/23 04:40:28;;;;;;;7.20;5.80;;;;;;;10.66;69.00;98461.18;219621;1270;22654;-68
2022/05/23 04:45:31;;;;;;;6.30;5.20;;;;;;;10.64;69.09;98455.53;221068;1270;24348;-70
2022/05/23 04:50:43;;;;;;;7.50;5.80;;;;;;;10.64;69.13;98456.45;219723;1271;25367;-68
2022/05/23 04:55:47;;;;;;;7.20;5.30;;;;;;;10.65;69.28;98458.20;219654;1270;22654;-69
2022/05/23 05:00:49;;;;;;;7.20;6.00;;;;;;;10.70;69.49;98456.45;219145;1271;25443;-69
2022/05/23 05:05:53;;;;;;;5.80;5.00;;;;;;;10.78;69.57;98459.03;219359;1272;24260;-68
2022/05/23 05:10:59;;;;;;;5.30;4.80;;;;;;;10.89;69.56;98469.02;220055;1271;24909;-68
2022/05/23 05:16:04;;;;;;;6.30;5.00;;;;;;;11.00;69.01;98473.56;220270;1270;23145;-69
2022/05/23 05:21:15;;;;;;;6.50;5.60;;;;;;;11.14;68.78;98476.02;220060;1270;24770;-68
2022/05/23 05:26:36;;;;;;;8.10;6.20;;;;;;;11.31;68.33;98485.02;219731;1270;22529;-70
2022/05/23 05:31:56;;;;;;;12.30;6.80;;;;;;;11.45;67.63;98482.57;219831;1272;22554;-69
2022/05/23 05:37:05;;;;;;;11.60;7.20;;;;;;;11.64;67.07;98487.91;221244;1270;22557;-69
2022/05/23 05:42:18;;;;;;;9.90;6.50;;;;;;;11.82;66.77;98487.89;219647;1270;22582;-68
2022/05/23 05:47:38;;;;;;;11.80;7.40;;;;;;;12.03;66.54;98497.68;219535;1271;22538;-71
2022/05/23 05:53:24;;;;;;;8.50;5.90;;;;;;;12.27;65.02;98504.58;221542;1270;22582;-70
2022/05/23 05:58:29;;;;;;;7.80;6.00;;;;;;;12.38;64.21;98504.27;221640;1270;22584;-72
2022/05/23 06:03:34;;;;;;;8.40;4.90;;;;;;;12.56;63.93;98500.11;221883;1270;23061;-71
2022/05/23 06:14:07;;;;;;;7.00;4.60;;;;;;;12.98;62.64;98509.02;221729;1269;22705;-69
2022/05/23 06:19:22;;;;;;;9.00;4.90;;;;;;;13.12;61.63;98516.17;219132;1270;22559;-70
2022/05/23 06:24:51;;;;;;;5.40;4.00;;;;;;;13.18;60.55;98506.22;220977;1270;25354;-69
2022/05/23 06:29:53;;;;;;;6.10;4.00;;;;;;;13.25;60.54;98503.42;219367;1270;22605;-69
2022/05/23 06:35:16;;;;;;;5.00;4.00;;;;;;;13.44;60.18;98496.69;219168;1270;25421;-68
2022/05/23 06:40:20;;;;;;;5.10;4.00;;;;;;;13.61;59.80;98488.23;221219;1270;25232;-70
2022/05/23 06:45:42;;;;;;;6.90;4.20;;;;;;;13.73;59.41;98481.99;221653;1270;24672;-69
2022/05/23 06:51:03;;;;;;;5.30;3.80;;;;;;;13.84;58.79;98475.74;221787;1271;22617;-71
2022/05/23 06:56:12;;;;;;;4.70;3.40;;;;;;;13.96;58.50;98471.42;221569;1270;22551;-71
2022/05/23 07:01:16;;;;;;;5.50;3.50;;;;;;;14.12;58.11;98464.78;222666;1272;22834;-71
2022/05/23 07:12:26;;;;;;;3.40;2.60;;;;;;;14.54;56.81;98456.55;221847;1270;24775;-71
2022/05/23 07:17:32;;;;;;;2.80;2.20;;;;;;;14.73;55.78;98450.10;221409;1270;24292;-71
2022/05/23 07:22:46;;;;;;;3.20;1.90;;;;;;;14.96;55.16;98446.66;221760;1270;22560;-71
2022/05/23 07:28:04;;;;;;;3.00;1.90;;;;;;;15.20;53.89;98442.91;221361;1272;22758;-71
2022/05/23 07:33:15;;;;;;;3.60;2.10;;;;;;;15.38;52.83;98445.29;221621;1270;22519;-70
2022/05/23 07:38:30;;;;;;;3.50;2.20;;;;;;;15.57;52.75;98446.52;222927;1270;22526;-70
2022/05/23 07:43:36;;;;;;;3.10;2.20;;;;;;;15.70;52.02;98443.92;219530;1270;22502;-71
2022/05/23 07:48:42;;;;;;;2.50;1.90;;;;;;;15.76;51.46;98437.43;223886;1270;26574;-71
2022/05/23 08:04:44;;;;;;;2.20;1.80;;;;;;;16.22;50.23;98425.91;221734;1270;22532;-72
2022/05/23 08:09:49;;;;;;;3.20;2.30;;;;;;;16.45;50.19;98424.44;221413;1273;25378;-71
2022/05/23 08:14:51;;;;;;;3.30;2.30;;;;;;;16.51;48.67;98418.14;221913;1270;25377;-72
2022/05/23 08:20:01;;;;;;;3.90;2.80;;;;;;;16.52;48.71;98417.80;221957;1270;25080;-72
2022/05/23 08:25:08;;;;;;;3.80;2.80;;;;;;;16.69;48.54;98403.04;222645;1270;22582;-72
2022/05/23 08:30:12;;;;;;;3.90;2.40;;;;;;;16.80;48.34;98408.48;222312;1270;23406;-72
2022/05/23 08:35:34;;;;;;;3.10;2.00;;;;;;;16.96;47.86;98402.90;221891;1273;26405;-72
2022/05/23 08:41:56;;;;;;;8.20;2.70;;;;;;;17.14;47.39;98402.58;221739;1270;23547;-72
2022/05/23 08:49:06;;;;;;;3.30;2.30;;;;;;;17.41;47.02;98391.85;221609;1270;22559;-70
2022/05/23 08:55:02;;;;;;;3.50;2.80;;;;;;;17.83;46.30;98386.52;221987;1270;22585;-71
2022/05/23 09:00:44;;;;;;;3.50;2.80;;;;;;;18.08;45.78;98387.95;221487;1273;25419;-71
2022/05/23 09:05:54;;;;;;;5.10;3.40;;;;;;;18.24;44.63;98379.02;221579;1272;22677;-71
2022/05/23 09:11:28;;;;;;;3.30;2.90;;;;;;;18.38;44.59;98379.45;221556;1271;25438;-71
2022/05/23 09:16:35;;;;;;;2.40;1.90;;;;;;;18.66;43.96;98372.34;221619;1270;26440;-72
2022/05/23 09:26:59;;;;;;;3.00;2.30;;;;;;;18.66;42.45;98370.09;221921;1270;22531;-71
2022/05/23 09:32:09;;;;;;;5.70;3.40;;;;;;;18.75;42.67;98367.52;221776;1270;22917;-72
2022/05/23 09:38:00;;;;;;;;;;;;;;;;;;;;;
2022/05/23 09:49:12;;;;;;;4.00;2.40;;;;;;;19.31;41.89;98360.68;221789;1270;22673;-72
2022/05/23 09:54:23;;;;;;;4.70;3.10;;;;;;;19.77;41.56;98359.11;221305;1271;25394;-73
2022/05/23 09:59:36;;;;;;;7.90;3.20;;;;;;;20.10;40.51;98356.91;222162;1274;22782;-71
2022/05/23 10:04:45;;;;;;;5.00;3.20;;;;;;;20.07;39.50;98355.15;222610;1271;24383;-71
2022/05/23 10:10:17;;;;;;;3.40;2.30;;;;;;;20.17;40.00;98349.19;222682;1270;22691;-73
2022/05/23 10:15:41;;;;;;;4.10;2.40;;;;;;;20.33;38.80;98351.54;221771;1271;22568;-71
2022/05/23 10:20:48;;;;;;;2.70;1.60;;;;;;;19.97;37.15;98347.52;221715;1271;22539;-72
2022/05/23 10:26:15;;;;;;;4.60;2.80;;;;;;;19.66;38.35;98339.71;221711;1271;22686;-72
2022/05/23 10:31:25;;;;;;;3.60;2.30;;;;;;;19.68;38.64;98339.74;221894;1271;22611;-71
2022/05/23 10:36:30;;;;;;;2.60;2.00;;;;;;;19.77;39.02;98327.88;221803;1270;25451;-71
2022/05/23 10:47:26;;;;;;;4.20;1.90;;;;;;;19.94;38.61;98323.40;221503;1270;22552;-72
2022/05/23 10:53:01;;;;;;;1.80;1.70;;;;;;;20.08;38.24;98322.54;221561;1271;22563;-71
2022/05/23 10:58:12;;;;;;;2.20;1.40;;;;;;;20.14;37.54;98322.10;221470;1271;25376;-70
2022/05/23 11:03:34;;;;;;;3.70;1.50;;;;;;;20.20;37.55;98314.20;221522;1271;24239;-70
2022/05/23 11:09:12;;;;;;;2.70;1.50;;;;;;;20.25;37.25;98302.23;221486;1271;22544;-70
2022/05/23 11:14:29;;;;;;;2.20;1.70;;;;;;;20.34;37.51;98298.02;221706;1270;22544;-71
2022/05/23 11:19:32;;;;;;;1.50;1.30;;;;;;;20.52;37.42;98295.17;221743;1271;26514;-70
2022/05/23 11:25:33;;;;;;;2.20;1.40;;;;;;;20.74;37.32;98287.58;222669;1271;22740;-70
2022/05/23 11:36:01;;;;;;;1.60;1.30;;;;;;;20.94;35.67;98269.09;224630;1270;22534;-72
2022/05/23 11:41:27;;;;;;;2.10;1.50;;;;;;;20.74;36.45;98258.89;225161;1270;25228;-73
2022/05/23 11:47:04;;;;;;;1.60;1.30;;;;;;;20.91;35.90;98260.20;221860;1272;23037;-72
2022/05/23 11:52:26;;;;;;;2.30;1.40;;;;;;;21.00;35.72;98256.89;221727;1271;22610;-73
2022/05/23 11:57:36;;;;;;;1.40;1.30;;;;;;;21.01;35.69;98245.61;222290;1272;22541;-73
2022/05/23 12:03:00;;;;;;;3.00;1.40;;;;;;;21.00;35.44;98240.95;221756;1271;22690;-71
2022/05/23 12:08:24;;;;;;;1.70;1.60;;;;;;;21.11;35.23;98233.21;221767;1270;23378;-71
2022/05/23 12:13:37;;;;;;;2.50;1.30;;;;;;;21.17;35.18;98224.41;222755;1271;357239;-71
2022/05/23 12:18:40;;;;;;;2.20;1.50;;;;;;;21.32;35.04;98216.23;221470;1270;25253;-70
2022/05/23 12:23:45;;;;;;;2.50;1.20;;;;;;;21.47;34.87;98207.66;221657;1271;22557;-70
2022/05/23 12:29:00;;;;;;;1.90;1.60;;;;;;;21.64;34.49;98200.91;223070;1271;22701;-70
2022/05/23 12:34:03;;;;;;;1.80;1.40;;;;;;;21.93;34.20;98189.08;221394;1272;22560;-71
2022/05/23 12:39:17;;;;;;;1.70;1.20;;;;;;;22.17;33.73;98187.35;221455;1271;25136;-70
2022/05/23 12:44:57;;;;;;;2.10;1.80;;;;;;;22.42;33.59;98173.41;221243;1271;23287;-70
2022/05/23 12:50:19;;;;;;;3.40;2.40;;;;;;;22.77;32.76;98171.94;220986;1271;25542;-70
2022/05/23 12:55:53;;;;;;;2.10;1.50;;;;;;;22.71;31.94;98176.98;221487;1271;22568;-71
2022/05/23 13:01:11;;;;;;;3.40;1.60;;;;;;;22.54;31.59;98166.93;221583;1271;22585;-72
2022/05/23 13:06:22;;;;;;;2.00;1.50;;;;;;;22.76;32.12;98168.96;221570;1271;22528;-70
2022/05/23 13:11:34;;;;;;;1.90;1.30;;;;;;;22.87;31.82;98154.96;221487;1271;22544;-72
2022/05/23 13:16:39;;;;;;;2.50;1.50;;;;;;;22.97;31.39;98154.05;221474;1271;25362;-70
2022/05/23 13:27:11;;;;;;;1.70;1.40;;;;;;;23.18;31.53;98142.80;221730;1271;22655;-71
2022/05/23 13:32:23;;;;;;;2.00;1.30;;;;;;;23.28;30.92;98141.41;222214;1271;23668;-70
2022/05/23 13:37:31;;;;;;;3.30;2.80;;;;;;;23.34;30.72;98139.70;223755;1271;25685;-70
2022/05/23 13:42:37;;;;;;;2.90;1.40;;;;;;;23.36;30.36;98126.73;220969;1271;25398;-69
2022/05/23 13:47:49;;;;;;;1.60;1.40;;;;;;;23.38;30.26;98125.65;221689;1271;22681;-69
2022/05/23 13:53:14;;;;;;;2.70;2.30;;;;;;;23.50;30.29;98123.61;219023;1271;22544;-69
2022/05/23 13:58:27;;;;;;;2.60;2.00;;;;;;;23.58;30.37;98120.89;221531;1271;22600;-69
2022/05/23 14:03:46;;;;;;;4.90;2.90;;;;;;;23.67;30.20;98111.89;219213;1271;25349;-68
2022/05/23 14:08:55;;;;;;;5.50;2.50;;;;;;;23.85;30.37;98109.84;220181;1270;25380;-68
2022/05/23 14:14:26;;;;;;;3.00;2.60;;;;;;;23.86;29.89;98109.68;219505;1270;22535;-67
2022/05/23 14:19:42;;;;;;;3.00;2.10;;;;;;;23.70;29.23;98110.88;219403;1270;22561;-68
2022/05/23 14:24:51;;;;;;;4.30;2.60;;;;;;;23.32;29.79;98108.23;222338;1270;22577;-67
2022/05/23 14:30:17;;;;;;;5.20;2.70;;;;;;;23.23;30.31;98106.73;220722;1270;23144;-67
2022/05/23 14:35:35;;;;;;;6.60;5.60;;;;;;;23.37;30.45;98102.85;219473;1270;22742;-68
2022/05/23 14:40:41;;;;;;;5.30;3.00;;;;;;;23.34;30.24;98101.59;219454;1271;22990;-68
2022/05/23 14:46:00;;;;;;;4.80;3.90;;;;;;;23.07;30.60;98096.17;219379;1270;24335;-69
2022/05/23 14:51:15;;;;;;;5.20;3.20;;;;;;;23.10;31.05;98091.27;219415;1270;22738;-69
2022/05/23 14:56:19;;;;;;;5.70;2.60;;;;;;;23.14;31.07;98090.89;219503;1270;25304;-67
2022/05/23 15:01:25;;;;;;;3.40;2.30;;;;;;;23.01;31.23;98085.62;219642;1270;25505;-69
2022/05/23 15:06:30;;;;;;;3.80;2.70;;;;;;;22.93;31.33;98089.27;220493;1270;24223;-68
2022/05/23 15:11:35;;;;;;;4.90;2.70;;;;;;;22.80;31.46;98087.14;219498;1270;25531;-69
2022/05/23 15:16:38;;;;;;;4.70;3.90;;;;;;;22.74;31.58;98081.29;219845;1270;24228;-68
2022/05/23 15:21:40;;;;;;;2.90;2.20;;;;;;;22.75;31.40;98076.60;220115;1270;24288;-69
2022/05/23 15:26:47;;;;;;;3.00;1.90;;;;;;;22.83;31.80;98074.91;219741;1271;23051;-68
2022/05/23 15:31:53;;;;;;;7.40;2.80;;;;;;;23.19;32.05;98065.44;219746;1271;27836;-68
2022/05/23 15:36:56;;;;;;;5.50;2.30;;;;;;;23.48;31.76;98063.09;219710;1271;23930;-68
2022/05/23 15:42:01;;;;;;;7.80;3.50;;;;;;;23.54;31.60;98063.71;219828;1271;22638;-68
2022/05/23 15:47:09;;;;;;;3.90;2.20;;;;;;;23.35;31.55;98061.70;220005;1271;22591;-68
2022/05/23 15:52:11;;;;;;;2.50;1.90;;;;;;;23.15;31.59;98055.36;220896;1271;22630;-68
2022/05/23 15:57:28;;;;;;;1.80;1.70;;;;;;;23.11;31.70;98042.80;220319;1271;25358;-68
2022/05/23 16:02:31;;;;;;;1.70;1.60;;;;;;;22.97;31.82;98039.20;220716;1270;23837;-68
2022/05/23 16:07:33;;;;;;;4.00;3.70;;;;;;;22.80;32.40;98038.16;219727;1272;22581;-68
2022/05/23 16:12:44;;;;;;;1.90;1.70;;;;;;;22.46;32.93;98031.54;219670;1270;22601;-68
2022/05/23 16:17:50;;;;;;;2.60;1.50;;;;;;;22.09;33.60;98022.58;219656;1270;22617;-69
2022/05/23 16:23:03;;;;;;;;;;;;;;;21.78;33.95;98017.06;219749;1271;22609;-68
2022/05/23 16:28:07;;;;;;;1.80;1.60;;;;;;;21.53;33.98;98008.82;220122;1270;22535;-68
2022/05/23 16:38:46;;;;;;;1.50;1.40;;;;;;;21.19;34.56;98010.45;220384;1270;22657;-68
2022/05/23 16:43:48;;;;;;;2.90;1.20;;;;;;;20.99;34.68;98007.80;220977;1271;22546;-68
2022/05/23 16:48:51;;;;;;;1.70;1.30;;;;;;;20.87;34.77;98005.14;219508;1270;24261;-68
2022/05/23 16:54:00;;;;;;;3.00;2.10;;;;;;;20.71;34.82;98005.84;224863;1271;22552;-69
2022/05/23 16:59:05;;;;;;;1.70;1.50;;;;;;;20.57;35.10;98007.17;220866;1270;22856;-67
2022/05/23 17:04:08;;;;;;;2.30;2.10;;;;;;;20.49;35.51;98014.07;219688;1271;22558;-68
2022/05/23 17:09:20;;;;;;;2.10;1.30;;;;;;;20.37;35.77;98019.63;220143;1270;24314;-68
2022/05/23 17:14:23;;;;;;;1.50;1.30;;;;;;;20.66;36.65;98018.52;219770;1270;24428;-68
2022/05/23 17:19:28;;;;;;;4.50;1.60;;;;;;;22.13;36.32;98020.70;219850;1270;22618;-68
2022/05/23 17:24:32;;;;;;;4.20;1.60;;;;;;;23.51;34.38;98023.48;219705;1270;22589;-68
2022/05/23 17:29:34;;;;;;;2.40;1.40;;;;;;;24.45;33.29;98018.80;221191;1270;25083;-68
2022/05/23 17:34:39;;;;;;;3.80;1.70;;;;;;;25.03;32.07;98013.90;219661;1270;22580;-70
2022/05/23 17:39:59;;;;;;;3.70;1.70;;;;;;;24.18;31.35;98009.77;219634;1270;22999;-68
2022/05/23 17:45:10;;;;;;;2.70;1.80;;;;;;;22.70;32.11;98008.58;220024;1270;22721;-67
2022/05/23 17:50:14;;;;;;;2.30;1.50;;;;;;;21.49;33.29;98006.59;220304;1270;25489;-67
2022/05/23 17:55:25;;;;;;;1.50;1.40;;;;;;;20.44;34.43;98002.05;219717;1271;22652;-68
2022/05/23 18:00:29;;;;;;;2.60;1.90;;;;;;;19.49;35.83;97992.80;219407;1271;24521;-67
2022/05/23 18:05:34;;;;;;;1.90;1.30;;;;;;;18.78;36.86;97993.64;219867;1271;24772;-68
2022/05/23 18:10:41;;;;;;;2.40;1.30;;;;;;;18.26;37.79;97993.32;219867;1271;25396;-68
2022/05/23 18:21:22;;;;;;;2.40;1.40;;;;;;;17.50;39.40;97996.70;219333;1271;24321;-68
2022/05/23 18:26:31;;;;;;;4.30;1.70;;;;;;;17.17;40.18;97997.67;219618;1271;24348;-67
2022/05/23 18:31:39;;;;;;;5.80;3.80;;;;;;;16.87;40.84;97997.95;219659;1271;22590;-67
2022/05/23 18:36:50;;;;;;;3.20;2.20;;;;;;;16.58;41.53;97994.10;220350;1270;22721;-72
2022/05/23 18:42:03;;;;;;;3.10;2.40;;;;;;;16.33;42.07;97994.15;219974;1270;26419;-69
2022/05/23 18:47:07;;;;;;;3.50;3.00;;;;;;;16.10;42.77;97992.62;219815;1270;22503;-68
2022/05/23 18:52:20;;;;;;;3.40;2.60;;;;;;;15.94;43.33;97995.79;219968;1269;22610;-68
2022/05/23 18:57:25;;;;;;;4.60;2.70;;;;;;;15.75;43.90;97999.39;219964;1270;22583;-67
2022/05/23 19:02:42;;;;;;;2.30;1.90;;;;;;;15.61;44.44;98006.39;219738;1270;24239;-67
2022/05/23 19:07:46;;;;;;;3.00;2.50;;;;;;;15.45;45.01;97999.45;221065;1270;24288;-68
2022/05/23 19:12:49;;;;;;;4.30;2.90;;;;;;;15.32;45.55;98002.58;220422;1270;24260;-67
2022/05/23 19:17:56;;;;;;;3.50;2.40;;;;;;;15.14;46.00;98010.44;219893;1270;22568;-69
2022/05/23 19:22:59;;;;;;;5.60;4.00;;;;;;;14.94;46.35;98013.17;219861;1270;24226;-68
2022/05/23 19:28:03;;;;;;;3.50;2.80;;;;;;;14.74;46.95;98007.92;219850;1270;22570;-68
2022/05/23 19:33:05;;;;;;;3.30;2.10;;;;;;;14.57;47.61;98002.02;220198;1270;22560;-67
2022/05/23 19:38:09;;;;;;;3.80;2.50;;;;;;;14.40;48.09;97996.36;219743;1270;22566;-68
2022/05/23 19:43:11;;;;;;;6.00;3.80;;;;;;;14.22;48.62;97996.34;220465;1270;22620;-69
2022/05/23 19:48:17;;;;;;;4.80;2.10;;;;;;;14.01;49.06;97992.84;220309;1270;25312;-68
2022/05/23 19:53:20;;;;;;;3.70;2.20;;;;;;;13.89;49.79;97993.78;219683;1270;25394;-68
2022/05/23 19:58:25;;;;;;;2.90;2.10;;;;;;;13.80;50.34;97990.86;219829;1270;22535;-68
2022/05/23 20:08:49;;;;;;;4.30;2.30;;;;;;;13.69;51.26;97981.61;220728;1270;24260;-67
2022/05/23 20:13:52;;;;;;;2.30;2.10;;;;;;;13.68;51.74;97980.79;220113;1271;22553;-67
2022/05/23 20:18:57;;;;;;;3.90;2.20;;;;;;;13.65;52.14;97984.80;219691;1272;26519;-68
2022/05/23 20:24:02;;;;;;;4.50;2.60;;;;;;;13.68;52.41;97985.66;220139;1270;26589;-70
2022/05/23 20:29:07;;;;;;;3.60;2.60;;;;;;;13.71;52.68;97986.05;219748;1270;22914;-68
2022/05/23 20:34:13;;;;;;;4.70;2.70;;;;;;;13.69;52.86;97991.61;221107;1271;24242;-67
2022/05/23 20:39:38;;;;;;;3.30;2.60;;;;;;;13.66;53.05;97991.66;219821;1270;26444;-68
2022/05/23 20:44:42;;;;;;;3.10;2.70;;;;;;;13.67;53.28;97989.70;220196;1272;22541;-68
2022/05/23 20:49:46;;;;;;;3.40;2.70;;;;;;;13.69;53.38;97982.14;219772;1272;22566;-68
2022/05/23 20:55:16;;;;;;;4.10;2.40;;;;;;;13.74;53.49;97980.55;219892;1272;23097;-68
2022/05/23 21:00:37;;;;;;;3.30;2.60;;;;;;;13.80;53.62;97983.70;219579;1271;25405;-67
2022/05/23 21:05:40;;;;;;;3.60;2.40;;;;;;;13.81;53.77;97985.53;219795;1271;26311;-67
2022/05/23 21:10:45;;;;;;;2.80;2.50;;;;;;;13.83;53.71;97982.44;220041;1270;22531;-69
2022/05/23 21:15:48;;;;;;;3.50;2.80;;;;;;;13.82;53.67;97974.58;219758;1270;22541;-68
2022/05/23 21:20:50;;;;;;;2.90;2.60;;;;;;;13.82;53.82;97968.02;219854;1270;22960;-69
2022/05/23 21:25:52;;;;;;;3.70;2.90;;;;;;;13.82;54.10;97957.09;219850;1270;22556;-67
2022/05/23 21:30:55;;;;;;;4.50;2.80;;;;;;;13.83;54.28;97954.06;219903;1270;22556;-68
2022/05/23 21:35:58;;;;;;;2.80;2.40;;;;;;;13.83;54.44;97951.19;220753;1270;24757;-67
2022/05/23 21:46:37;;;;;;;3.50;2.90;;;;;;;13.78;54.61;97943.34;219563;1271;22554;-68
2022/05/23 21:51:39;;;;;;;3.30;2.70;;;;;;;13.72;54.78;97935.95;219577;1271;22575;-68
2022/05/23 21:56:50;;;;;;;4.10;3.20;;;;;;;13.68;55.07;97930.88;220221;1271;22606;-67
2022/05/23 22:01:52;;;;;;;4.30;3.60;;;;;;;13.62;55.19;97921.44;219950;1271;24461;-68
2022/05/23 22:06:57;;;;;;;4.50;3.50;;;;;;;13.57;55.34;97923.09;219555;1271;22925;-67
2022/05/23 22:12:02;;;;;;;3.70;3.30;;;;;;;13.51;55.50;97918.30;220555;1270;24047;-67
2022/05/23 22:17:05;;;;;;;5.60;3.00;;;;;;;13.52;55.70;97924.63;219848;1270;22707;-67
2022/05/23 22:22:08;;;;;;;6.00;3.30;;;;;;;13.54;55.80;97927.07;219829;1270;22539;-68
2022/05/23 22:27:13;;;;;;;4.00;3.10;;;;;;;13.57;55.71;97923.11;219715;1270;23930;-68
2022/05/23 22:32:32;;;;;;;3.20;2.90;;;;;;;13.62;55.75;97915.90;220317;1270;24103;-68
2022/05/23 22:38:02;;;;;;;3.40;2.60;;;;;;;13.63;55.57;97915.58;219734;1271;23132;-68
2022/05/23 22:43:07;;;;;;;4.00;2.70;;;;;;;13.62;55.48;97907.61;219970;1271;22604;-68
2022/05/23 22:48:10;;;;;;;3.00;2.70;;;;;;;13.59;55.50;97911.42;220462;1271;22739;-68
2022/05/23 22:53:14;;;;;;;4.60;2.50;;;;;;;13.57;55.53;97909.20;219957;1270;22585;-68
2022/05/23 22:58:16;;;;;;;2.80;2.50;;;;;;;13.54;55.63;97904.50;221176;1270;22702;-68
2022/05/23 23:08:41;;;;;;;3.00;2.60;;;;;;;13.50;55.70;97897.41;219910;1270;22542;-69
2022/05/23 23:13:44;;;;;;;4.10;2.80;;;;;;;13.48;55.79;97890.91;220263;1270;24205;-68
2022/05/23 23:18:46;;;;;;;4.40;2.70;;;;;;;13.47;55.90;97892.56;219672;1270;22562;-68
2022/05/23 23:23:49;;;;;;;5.40;2.30;;;;;;;13.45;55.98;97897.10;219958;1270;25419;-68
2022/05/23 23:28:51;;;;;;;4.00;2.80;;;;;;;13.44;56.06;97905.19;219975;1270;24243;-67
2022/05/23 23:39:37;;;;;;;3.50;2.70;;;;;;;13.39;56.25;97908.48;219800;1270;22758;-68
2022/05/23 23:44:40;;;;;;;3.50;2.70;;;;;;;13.35;56.37;97911.27;219768;1270;22546;-68
2022/05/23 23:49:43;;;;;;;2.60;2.40;;;;;;;13.33;56.55;97912.92;219701;1270;22465;-67
2022/05/23 23:54:45;;;;;;;2.90;2.60;;;;;;;13.35;56.71;97911.69;219828;1270;22938;-66
2022/05/23 23:59:49;;;;;;;4.50;3.00;;;;;;;13.35;56.64;97909.09;219707;1270;22869;-68
